sensor_id;sensor_type;location;lat;lon;timestamp;P1;durP1;ratioP1;P2;durP2;ratioP2
52031;SDS011;38044;45.148;39.604;2022-09-27T00:00:26;9.20;;;6.40;;
52031;SDS011;38044;45.148;39.604;2022-09-27T00:02:51;8.73;;;6.45;;
52031;SDS011;38044;45.148;39.604;2022-09-27T00:05:17;9.23;;;6.57;;
52031;SDS011;38044;45.148;39.604;2022-09-27T00:07:44;8.77;;;5.90;;
52031;SDS011;38044;45.148;39.604;2022-09-27T00:10:10;11.73;;;7.22;;
52031;SDS011;38044;45.148;39.604;2022-09-27T00:12:37;11.48;;;7.10;;
52031;SDS011;38044;45.148;39.604;2022-09-27T00:15:04;13.85;;;7.38;;
52031;SDS011;38044;45.148;39.604;2022-09-27T00:17:31;15.48;;;6.65;;
52031;SDS011;38044;45.148;39.604;2022-09-27T00:20:00;12.10;;;6.93;;
52031;SDS011;38044;45.148;39.604;2022-09-27T00:22:28;9.77;;;6.22;;
52031;SDS011;38044;45.148;39.604;2022-09-27T00:24:54;8.52;;;6.35;;
52031;SDS011;38044;45.148;39.604;2022-09-27T00:27:20;11.80;;;6.55;;
52031;SDS011;38044;45.148;39.604;2022-09-27T00:29:45;9.30;;;6.30;;
52031;SDS011;38044;45.148;39.604;2022-09-27T00:32:12;11.45;;;6.85;;
52031;SDS011;38044;45.148;39.604;2022-09-27T00:34:39;9.52;;;6.53;;
52031;SDS011;38044;45.148;39.604;2022-09-27T00:37:06;11.07;;;6.70;;
52031;SDS011;38044;45.148;39.604;2022-09-27T00:39:33;12.55;;;6.75;;
52031;SDS011;38044;45.148;39.604;2022-09-27T00:41:59;8.23;;;6.32;;
52031;SDS011;38044;45.148;39.604;2022-09-27T00:47:03;8.90;;;6.63;;
52031;SDS011;38044;45.148;39.604;2022-09-27T00:49:50;9.82;;;6.35;;
52031;SDS011;38044;45.148;39.604;2022-09-27T00:52:20;11.57;;;6.05;;
52031;SDS011;38044;45.148;39.604;2022-09-27T00:54:47;10.88;;;7.15;;
52031;SDS011;38044;45.148;39.604;2022-09-27T00:57:18;10.80;;;6.65;;
52031;SDS011;38044;45.148;39.604;2022-09-27T00:59:47;12.50;;;6.70;;
52031;SDS011;38044;45.148;39.604;2022-09-27T01:02:17;9.85;;;6.38;;
52031;SDS011;38044;45.148;39.604;2022-09-27T01:04:44;11.27;;;6.63;;
52031;SDS011;38044;45.148;39.604;2022-09-27T01:07:12;7.78;;;5.88;;
52031;SDS011;38044;45.148;39.604;2022-09-27T01:09:38;11.93;;;6.57;;
52031;SDS011;38044;45.148;39.604;2022-09-27T01:20:05;12.15;;;6.63;;
52031;SDS011;38044;45.148;39.604;2022-09-27T01:22:57;11.13;;;6.22;;
52031;SDS011;38044;45.148;39.604;2022-09-27T01:25:40;8.57;;;5.82;;
52031;SDS011;38044;45.148;39.604;2022-09-27T01:28:27;8.52;;;6.10;;
52031;SDS011;38044;45.148;39.604;2022-09-27T01:36:41;9.52;;;6.53;;
52031;SDS011;38044;45.148;39.604;2022-09-27T01:41:49;11.38;;;6.32;;
52031;SDS011;38044;45.148;39.604;2022-09-27T01:47:02;7.95;;;6.35;;
52031;SDS011;38044;45.148;39.604;2022-09-27T01:52:36;9.57;;;6.40;;
52031;SDS011;38044;45.148;39.604;2022-09-27T01:55:08;10.60;;;6.85;;
52031;SDS011;38044;45.148;39.604;2022-09-27T01:57:39;8.70;;;6.43;;
52031;SDS011;38044;45.148;39.604;2022-09-27T02:00:11;11.98;;;6.18;;
52031;SDS011;38044;45.148;39.604;2022-09-27T02:02:46;9.70;;;6.22;;
52031;SDS011;38044;45.148;39.604;2022-09-27T02:05:13;12.55;;;6.90;;
52031;SDS011;38044;45.148;39.604;2022-09-27T02:07:52;9.38;;;6.65;;
52031;SDS011;38044;45.148;39.604;2022-09-27T02:10:44;8.23;;;5.97;;
52031;SDS011;38044;45.148;39.604;2022-09-27T02:16:02;10.30;;;6.20;;
52031;SDS011;38044;45.148;39.604;2022-09-27T02:21:29;9.55;;;6.20;;
52031;SDS011;38044;45.148;39.604;2022-09-27T02:24:09;9.45;;;5.97;;
52031;SDS011;38044;45.148;39.604;2022-09-27T02:26:44;7.53;;;6.13;;
52031;SDS011;38044;45.148;39.604;2022-09-27T02:29:17;9.30;;;6.07;;
52031;SDS011;38044;45.148;39.604;2022-09-27T02:34:25;10.35;;;5.80;;
52031;SDS011;38044;45.148;39.604;2022-09-27T02:36:55;8.57;;;5.82;;
52031;SDS011;38044;45.148;39.604;2022-09-27T02:39:21;9.35;;;5.82;;
52031;SDS011;38044;45.148;39.604;2022-09-27T02:41:48;11.43;;;6.20;;
52031;SDS011;38044;45.148;39.604;2022-09-27T02:44:14;11.32;;;5.90;;
52031;SDS011;38044;45.148;39.604;2022-09-27T02:57:24;8.75;;;6.32;;
52031;SDS011;38044;45.148;39.604;2022-09-27T03:00:03;9.68;;;5.50;;
52031;SDS011;38044;45.148;39.604;2022-09-27T03:05:15;10.77;;;6.32;;
52031;SDS011;38044;45.148;39.604;2022-09-27T03:07:47;10.13;;;5.60;;
52031;SDS011;38044;45.148;39.604;2022-09-27T03:10:17;13.63;;;6.57;;
52031;SDS011;38044;45.148;39.604;2022-09-27T03:12:45;9.45;;;6.13;;
52031;SDS011;38044;45.148;39.604;2022-09-27T03:15:12;10.57;;;6.20;;
52031;SDS011;38044;45.148;39.604;2022-09-27T03:17:38;9.77;;;5.75;;
52031;SDS011;38044;45.148;39.604;2022-09-27T03:20:04;10.80;;;6.28;;
52031;SDS011;38044;45.148;39.604;2022-09-27T03:22:31;7.78;;;5.90;;
52031;SDS011;38044;45.148;39.604;2022-09-27T03:24:58;10.10;;;6.15;;
52031;SDS011;38044;45.148;39.604;2022-09-27T03:27:23;11.35;;;6.43;;
52031;SDS011;38044;45.148;39.604;2022-09-27T03:29:49;8.20;;;6.05;;
52031;SDS011;38044;45.148;39.604;2022-09-27T03:32:15;11.70;;;6.20;;
52031;SDS011;38044;45.148;39.604;2022-09-27T03:34:41;8.68;;;5.50;;
52031;SDS011;38044;45.148;39.604;2022-09-27T03:37:07;10.55;;;5.88;;
52031;SDS011;38044;45.148;39.604;2022-09-27T03:39:33;8.65;;;5.63;;
52031;SDS011;38044;45.148;39.604;2022-09-27T03:41:59;9.35;;;6.18;;
52031;SDS011;38044;45.148;39.604;2022-09-27T03:44:25;10.82;;;6.30;;
52031;SDS011;38044;45.148;39.604;2022-09-27T03:46:51;22.50;;;10.52;;
52031;SDS011;38044;45.148;39.604;2022-09-27T03:49:17;7.80;;;6.20;;
52031;SDS011;38044;45.148;39.604;2022-09-27T03:51:43;11.73;;;6.13;;
52031;SDS011;38044;45.148;39.604;2022-09-27T03:54:12;9.48;;;6.45;;
52031;SDS011;38044;45.148;39.604;2022-09-27T03:56:40;11.80;;;6.57;;
52031;SDS011;38044;45.148;39.604;2022-09-27T03:59:05;12.00;;;6.90;;
52031;SDS011;38044;45.148;39.604;2022-09-27T04:01:31;10.23;;;6.75;;
52031;SDS011;38044;45.148;39.604;2022-09-27T04:04:04;9.27;;;5.78;;
52031;SDS011;38044;45.148;39.604;2022-09-27T04:06:31;14.85;;;5.75;;
52031;SDS011;38044;45.148;39.604;2022-09-27T04:08:59;13.00;;;5.32;;
52031;SDS011;38044;45.148;39.604;2022-09-27T04:11:26;13.90;;;5.40;;
52031;SDS011;38044;45.148;39.604;2022-09-27T04:13:52;13.27;;;4.85;;
52031;SDS011;38044;45.148;39.604;2022-09-27T04:16:20;10.43;;;4.30;;
52031;SDS011;38044;45.148;39.604;2022-09-27T04:18:47;7.53;;;3.92;;
52031;SDS011;38044;45.148;39.604;2022-09-27T04:21:12;5.82;;;3.65;;
52031;SDS011;38044;45.148;39.604;2022-09-27T04:23:38;7.15;;;3.47;;
52031;SDS011;38044;45.148;39.604;2022-09-27T04:39:16;7.68;;;2.78;;
52031;SDS011;38044;45.148;39.604;2022-09-27T04:41:42;7.85;;;2.90;;
52031;SDS011;38044;45.148;39.604;2022-09-27T04:44:09;3.97;;;2.90;;
52031;SDS011;38044;45.148;39.604;2022-09-27T04:46:35;9.25;;;3.22;;
52031;SDS011;38044;45.148;39.604;2022-09-27T04:49:01;5.07;;;2.65;;
52031;SDS011;38044;45.148;39.604;2022-09-27T04:51:27;5.43;;;2.30;;
52031;SDS011;38044;45.148;39.604;2022-09-27T04:53:54;7.30;;;3.47;;
52031;SDS011;38044;45.148;39.604;2022-09-27T04:56:21;8.77;;;2.83;;
52031;SDS011;38044;45.148;39.604;2022-09-27T04:58:47;6.45;;;2.65;;
52031;SDS011;38044;45.148;39.604;2022-09-27T05:01:13;6.22;;;2.78;;
52031;SDS011;38044;45.148;39.604;2022-09-27T05:03:39;5.53;;;2.85;;
52031;SDS011;38044;45.148;39.604;2022-09-27T05:06:04;5.15;;;2.55;;
52031;SDS011;38044;45.148;39.604;2022-09-27T05:08:31;7.80;;;2.63;;
52031;SDS011;38044;45.148;39.604;2022-09-27T05:10:56;11.15;;;2.90;;
52031;SDS011;38044;45.148;39.604;2022-09-27T05:13:22;11.82;;;3.03;;
52031;SDS011;38044;45.148;39.604;2022-09-27T05:15:48;11.00;;;2.80;;
52031;SDS011;38044;45.148;39.604;2022-09-27T05:18:14;7.15;;;2.55;;
52031;SDS011;38044;45.148;39.604;2022-09-27T05:20:40;8.93;;;2.63;;
52031;SDS011;38044;45.148;39.604;2022-09-27T05:23:06;4.65;;;2.03;;
52031;SDS011;38044;45.148;39.604;2022-09-27T05:25:33;2.80;;;2.05;;
52031;SDS011;38044;45.148;39.604;2022-09-27T05:27:59;7.78;;;2.25;;
52031;SDS011;38044;45.148;39.604;2022-09-27T05:30:25;24.38;;;3.50;;
52031;SDS011;38044;45.148;39.604;2022-09-27T05:32:51;3.03;;;2.20;;
52031;SDS011;38044;45.148;39.604;2022-09-27T05:35:18;3.80;;;2.25;;
52031;SDS011;38044;45.148;39.604;2022-09-27T05:38:02;2.58;;;1.75;;
52031;SDS011;38044;45.148;39.604;2022-09-27T05:40:28;9.02;;;2.40;;
52031;SDS011;38044;45.148;39.604;2022-09-27T05:42:54;3.78;;;2.53;;
52031;SDS011;38044;45.148;39.604;2022-09-27T05:45:21;11.38;;;2.45;;
52031;SDS011;38044;45.148;39.604;2022-09-27T05:47:51;3.28;;;2.35;;
52031;SDS011;38044;45.148;39.604;2022-09-27T05:50:22;6.97;;;2.17;;
52031;SDS011;38044;45.148;39.604;2022-09-27T05:52:48;3.70;;;2.03;;
52031;SDS011;38044;45.148;39.604;2022-09-27T05:55:14;6.15;;;2.30;;
52031;SDS011;38044;45.148;39.604;2022-09-27T05:57:40;10.68;;;2.47;;
52031;SDS011;38044;45.148;39.604;2022-09-27T06:00:07;7.18;;;2.35;;
52031;SDS011;38044;45.148;39.604;2022-09-27T06:02:35;3.17;;;2.05;;
52031;SDS011;38044;45.148;39.604;2022-09-27T06:05:01;4.35;;;1.80;;
52031;SDS011;38044;45.148;39.604;2022-09-27T06:07:29;3.60;;;1.65;;
52031;SDS011;38044;45.148;39.604;2022-09-27T06:09:56;5.90;;;1.95;;
52031;SDS011;38044;45.148;39.604;2022-09-27T06:12:22;10.55;;;2.25;;
52031;SDS011;38044;45.148;39.604;2022-09-27T06:14:47;7.60;;;2.35;;
52031;SDS011;38044;45.148;39.604;2022-09-27T06:17:14;2.83;;;1.73;;
52031;SDS011;38044;45.148;39.604;2022-09-27T06:19:39;3.22;;;1.80;;
52031;SDS011;38044;45.148;39.604;2022-09-27T06:22:05;3.45;;;1.92;;
52031;SDS011;38044;45.148;39.604;2022-09-27T06:24:31;7.60;;;2.50;;
52031;SDS011;38044;45.148;39.604;2022-09-27T06:26:57;6.22;;;2.00;;
52031;SDS011;38044;45.148;39.604;2022-09-27T06:29:23;3.78;;;1.77;;
52031;SDS011;38044;45.148;39.604;2022-09-27T06:31:48;3.65;;;1.90;;
52031;SDS011;38044;45.148;39.604;2022-09-27T06:34:14;7.13;;;2.28;;
52031;SDS011;38044;45.148;39.604;2022-09-27T06:36:40;9.13;;;2.38;;
52031;SDS011;38044;45.148;39.604;2022-09-27T06:39:07;4.18;;;1.85;;
52031;SDS011;38044;45.148;39.604;2022-09-27T06:41:33;5.15;;;1.85;;
52031;SDS011;38044;45.148;39.604;2022-09-27T06:44:00;3.50;;;2.03;;
52031;SDS011;38044;45.148;39.604;2022-09-27T06:46:26;4.30;;;1.40;;
52031;SDS011;38044;45.148;39.604;2022-09-27T06:48:52;2.00;;;1.65;;
52031;SDS011;38044;45.148;39.604;2022-09-27T06:51:19;2.70;;;1.80;;
52031;SDS011;38044;45.148;39.604;2022-09-27T06:53:45;5.30;;;1.80;;
52031;SDS011;38044;45.148;39.604;2022-09-27T06:56:11;3.05;;;1.73;;
52031;SDS011;38044;45.148;39.604;2022-09-27T06:58:37;8.05;;;2.30;;
52031;SDS011;38044;45.148;39.604;2022-09-27T07:01:25;4.07;;;2.08;;
52031;SDS011;38044;45.148;39.604;2022-09-27T07:03:52;7.70;;;1.88;;
52031;SDS011;38044;45.148;39.604;2022-09-27T07:06:19;5.93;;;1.83;;
52031;SDS011;38044;45.148;39.604;2022-09-27T07:08:52;7.68;;;1.83;;
52031;SDS011;38044;45.148;39.604;2022-09-27T07:11:18;8.57;;;1.92;;
52031;SDS011;38044;45.148;39.604;2022-09-27T07:13:46;3.63;;;1.88;;
52031;SDS011;38044;45.148;39.604;2022-09-27T07:16:12;10.90;;;2.00;;
52031;SDS011;38044;45.148;39.604;2022-09-27T07:18:41;3.47;;;1.50;;
52031;SDS011;38044;45.148;39.604;2022-09-27T07:21:07;4.82;;;1.40;;
52031;SDS011;38044;45.148;39.604;2022-09-27T07:23:35;5.07;;;1.50;;
52031;SDS011;38044;45.148;39.604;2022-09-27T07:26:02;7.75;;;1.75;;
52031;SDS011;38044;45.148;39.604;2022-09-27T07:28:29;5.03;;;1.70;;
52031;SDS011;38044;45.148;39.604;2022-09-27T07:30:55;10.38;;;1.92;;
52031;SDS011;38044;45.148;39.604;2022-09-27T07:33:21;5.05;;;1.67;;
52031;SDS011;38044;45.148;39.604;2022-09-27T07:35:47;8.52;;;2.03;;
52031;SDS011;38044;45.148;39.604;2022-09-27T07:38:13;7.97;;;2.10;;
52031;SDS011;38044;45.148;39.604;2022-09-27T07:40:40;8.93;;;2.72;;
52031;SDS011;38044;45.148;39.604;2022-09-27T07:43:07;10.40;;;3.03;;
52031;SDS011;38044;45.148;39.604;2022-09-27T07:45:36;6.60;;;3.72;;
52031;SDS011;38044;45.148;39.604;2022-09-27T07:48:09;7.10;;;1.60;;
52031;SDS011;38044;45.148;39.604;2022-09-27T07:50:37;14.93;;;2.60;;
52031;SDS011;38044;45.148;39.604;2022-09-27T07:53:03;5.50;;;3.15;;
52031;SDS011;38044;45.148;39.604;2022-09-27T07:55:29;4.53;;;1.95;;
52031;SDS011;38044;45.148;39.604;2022-09-27T07:58:05;7.13;;;2.85;;
52031;SDS011;38044;45.148;39.604;2022-09-27T08:00:33;16.33;;;4.32;;
52031;SDS011;38044;45.148;39.604;2022-09-27T08:03:05;8.93;;;3.38;;
52031;SDS011;38044;45.148;39.604;2022-09-27T08:05:45;10.88;;;5.10;;
52031;SDS011;38044;45.148;39.604;2022-09-27T08:08:12;18.92;;;6.80;;
52031;SDS011;38044;45.148;39.604;2022-09-27T08:10:39;9.02;;;5.28;;
52031;SDS011;38044;45.148;39.604;2022-09-27T08:13:08;14.95;;;3.75;;
52031;SDS011;38044;45.148;39.604;2022-09-27T08:15:35;7.53;;;3.28;;
52031;SDS011;38044;45.148;39.604;2022-09-27T08:18:03;4.10;;;2.53;;
52031;SDS011;38044;45.148;39.604;2022-09-27T08:20:30;6.53;;;3.40;;
52031;SDS011;38044;45.148;39.604;2022-09-27T08:22:56;11.48;;;4.18;;
52031;SDS011;38044;45.148;39.604;2022-09-27T08:25:22;11.95;;;6.45;;
52031;SDS011;38044;45.148;39.604;2022-09-27T08:27:58;9.88;;;4.57;;
52031;SDS011;38044;45.148;39.604;2022-09-27T08:30:26;4.40;;;1.98;;
52031;SDS011;38044;45.148;39.604;2022-09-27T08:32:55;7.60;;;3.85;;
52031;SDS011;38044;45.148;39.604;2022-09-27T08:35:22;12.65;;;4.38;;
52031;SDS011;38044;45.148;39.604;2022-09-27T08:37:52;14.90;;;4.07;;
52031;SDS011;38044;45.148;39.604;2022-09-27T08:40:23;3.55;;;1.65;;
52031;SDS011;38044;45.148;39.604;2022-09-27T08:43:22;30.58;;;10.32;;
52031;SDS011;38044;45.148;39.604;2022-09-27T08:48:48;3.80;;;2.58;;
52031;SDS011;38044;45.148;39.604;2022-09-27T08:51:21;7.50;;;2.58;;
52031;SDS011;38044;45.148;39.604;2022-09-27T08:53:55;11.82;;;4.88;;
52031;SDS011;38044;45.148;39.604;2022-09-27T08:56:25;4.07;;;2.95;;
52031;SDS011;38044;45.148;39.604;2022-09-27T08:59:01;8.00;;;3.60;;
52031;SDS011;38044;45.148;39.604;2022-09-27T09:01:37;16.77;;;5.18;;
52031;SDS011;38044;45.148;39.604;2022-09-27T09:04:03;22.50;;;7.57;;
52031;SDS011;38044;45.148;39.604;2022-09-27T09:06:37;8.50;;;4.20;;
52031;SDS011;38044;45.148;39.604;2022-09-27T09:09:12;6.03;;;2.50;;
52031;SDS011;38044;45.148;39.604;2022-09-27T09:17:51;7.00;;;2.30;;
52031;SDS011;38044;45.148;39.604;2022-09-27T09:20:31;3.38;;;1.83;;
52031;SDS011;38044;45.148;39.604;2022-09-27T09:28:52;18.75;;;4.80;;
52031;SDS011;38044;45.148;39.604;2022-09-27T09:31:32;8.85;;;2.08;;
52031;SDS011;38044;45.148;39.604;2022-09-27T09:36:46;7.85;;;1.98;;
52031;SDS011;38044;45.148;39.604;2022-09-27T09:39:25;5.18;;;1.70;;
52031;SDS011;38044;45.148;39.604;2022-09-27T09:47:12;2.63;;;1.40;;
52031;SDS011;38044;45.148;39.604;2022-09-27T09:49:50;2.35;;;1.40;;
52031;SDS011;38044;45.148;39.604;2022-09-27T09:52:21;2.08;;;1.77;;
52031;SDS011;38044;45.148;39.604;2022-09-27T09:55:01;2.35;;;1.40;;
52031;SDS011;38044;45.148;39.604;2022-09-27T09:57:38;3.08;;;1.38;;
52031;SDS011;38044;45.148;39.604;2022-09-27T10:00:13;3.90;;;1.80;;
52031;SDS011;38044;45.148;39.604;2022-09-27T10:02:41;4.35;;;1.70;;
52031;SDS011;38044;45.148;39.604;2022-09-27T10:05:11;4.65;;;1.90;;
52031;SDS011;38044;45.148;39.604;2022-09-27T10:07:39;4.32;;;1.88;;
52031;SDS011;38044;45.148;39.604;2022-09-27T10:10:05;3.50;;;2.00;;
52031;SDS011;38044;45.148;39.604;2022-09-27T10:12:33;6.80;;;2.10;;
52031;SDS011;38044;45.148;39.604;2022-09-27T10:15:01;3.17;;;1.67;;
52031;SDS011;38044;45.148;39.604;2022-09-27T10:17:34;3.17;;;1.48;;
52031;SDS011;38044;45.148;39.604;2022-09-27T10:20:03;4.38;;;1.65;;
52031;SDS011;38044;45.148;39.604;2022-09-27T10:22:44;5.03;;;1.52;;
52031;SDS011;38044;45.148;39.604;2022-09-27T10:27:47;12.85;;;2.70;;
52031;SDS011;38044;45.148;39.604;2022-09-27T10:30:24;5.63;;;1.73;;
52031;SDS011;38044;45.148;39.604;2022-09-27T10:32:53;4.20;;;1.70;;
52031;SDS011;38044;45.148;39.604;2022-09-27T10:40:47;3.70;;;1.80;;
52031;SDS011;38044;45.148;39.604;2022-09-27T10:43:31;3.00;;;1.63;;
52031;SDS011;38044;45.148;39.604;2022-09-27T10:48:34;5.25;;;1.70;;
52031;SDS011;38044;45.148;39.604;2022-09-27T10:51:03;5.93;;;1.90;;
52031;SDS011;38044;45.148;39.604;2022-09-27T10:53:31;2.90;;;1.70;;
52031;SDS011;38044;45.148;39.604;2022-09-27T10:55:59;3.45;;;1.35;;
52031;SDS011;38044;45.148;39.604;2022-09-27T11:00:55;4.82;;;1.85;;
52031;SDS011;38044;45.148;39.604;2022-09-27T11:03:25;2.90;;;1.85;;
52031;SDS011;38044;45.148;39.604;2022-09-27T11:05:53;36.30;;;3.75;;
52031;SDS011;38044;45.148;39.604;2022-09-27T11:13:56;4.43;;;1.80;;
52031;SDS011;38044;45.148;39.604;2022-09-27T11:24:49;9.48;;;1.92;;
52031;SDS011;38044;45.148;39.604;2022-09-27T11:30:46;6.47;;;1.58;;
52031;SDS011;38044;45.148;39.604;2022-09-27T11:33:24;2.92;;;1.60;;
52031;SDS011;38044;45.148;39.604;2022-09-27T11:36:04;3.00;;;1.73;;
52031;SDS011;38044;45.148;39.604;2022-09-27T11:44:04;5.18;;;1.65;;
52031;SDS011;38044;45.148;39.604;2022-09-27T11:47:07;2.42;;;1.55;;
52031;SDS011;38044;45.148;39.604;2022-09-27T11:52:34;4.60;;;1.50;;
52031;SDS011;38044;45.148;39.604;2022-09-27T11:57:41;3.00;;;1.70;;
52031;SDS011;38044;45.148;39.604;2022-09-27T12:00:24;5.13;;;1.83;;
52031;SDS011;38044;45.148;39.604;2022-09-27T12:05:54;5.68;;;1.52;;
52031;SDS011;38044;45.148;39.604;2022-09-27T12:11:40;4.63;;;1.42;;
52031;SDS011;38044;45.148;39.604;2022-09-27T12:14:28;7.20;;;1.73;;
52031;SDS011;38044;45.148;39.604;2022-09-27T12:17:04;6.57;;;1.60;;
52031;SDS011;38044;45.148;39.604;2022-09-27T12:19:37;12.88;;;2.40;;
52031;SDS011;38044;45.148;39.604;2022-09-27T12:22:10;4.38;;;1.70;;
52031;SDS011;38044;45.148;39.604;2022-09-27T12:24:39;4.82;;;1.90;;
52031;SDS011;38044;45.148;39.604;2022-09-27T12:27:12;6.25;;;2.08;;
52031;SDS011;38044;45.148;39.604;2022-09-27T12:29:44;10.77;;;2.72;;
52031;SDS011;38044;45.148;39.604;2022-09-27T12:32:15;10.85;;;2.08;;
52031;SDS011;38044;45.148;39.604;2022-09-27T12:35:01;16.95;;;3.40;;
52031;SDS011;38044;45.148;39.604;2022-09-27T12:37:44;10.18;;;2.55;;
52031;SDS011;38044;45.148;39.604;2022-09-27T12:40:18;7.60;;;2.28;;
52031;SDS011;38044;45.148;39.604;2022-09-27T12:42:53;7.32;;;2.33;;
52031;SDS011;38044;45.148;39.604;2022-09-27T13:02:06;4.22;;;2.65;;
52031;SDS011;38044;45.148;39.604;2022-09-27T13:10:12;7.03;;;2.80;;
52031;SDS011;38044;45.148;39.604;2022-09-27T13:12:58;6.93;;;2.72;;
52031;SDS011;38044;45.148;39.604;2022-09-27T13:15:32;6.75;;;2.50;;
52031;SDS011;38044;45.148;39.604;2022-09-27T13:18:01;6.55;;;2.50;;
52031;SDS011;38044;45.148;39.604;2022-09-27T13:23:00;6.88;;;2.75;;
52031;SDS011;38044;45.148;39.604;2022-09-27T13:30:59;7.68;;;3.15;;
52031;SDS011;38044;45.148;39.604;2022-09-27T13:39:25;8.68;;;3.08;;
52031;SDS011;38044;45.148;39.604;2022-09-27T13:41:51;7.75;;;2.35;;
52031;SDS011;38044;45.148;39.604;2022-09-27T13:53:27;4.13;;;2.53;;
52031;SDS011;38044;45.148;39.604;2022-09-27T13:56:02;6.13;;;2.92;;
52031;SDS011;38044;45.148;39.604;2022-09-27T14:04:04;8.20;;;2.70;;
52031;SDS011;38044;45.148;39.604;2022-09-27T14:09:42;15.88;;;2.97;;
52031;SDS011;38044;45.148;39.604;2022-09-27T14:12:14;9.18;;;2.53;;
52031;SDS011;38044;45.148;39.604;2022-09-27T14:27:12;9.38;;;2.55;;
52031;SDS011;38044;45.148;39.604;2022-09-27T14:29:56;6.30;;;2.58;;
52031;SDS011;38044;45.148;39.604;2022-09-27T14:32:30;6.73;;;2.17;;
52031;SDS011;38044;45.148;39.604;2022-09-27T14:35:14;5.35;;;2.70;;
52031;SDS011;38044;45.148;39.604;2022-09-27T14:38:04;6.13;;;2.80;;
52031;SDS011;38044;45.148;39.604;2022-09-27T14:40:39;4.78;;;2.45;;
52031;SDS011;38044;45.148;39.604;2022-09-27T14:43:17;7.38;;;2.75;;
52031;SDS011;38044;45.148;39.604;2022-09-27T14:45:45;7.72;;;2.80;;
52031;SDS011;38044;45.148;39.604;2022-09-27T14:48:19;8.23;;;3.00;;
52031;SDS011;38044;45.148;39.604;2022-09-27T14:50:54;9.32;;;2.80;;
52031;SDS011;38044;45.148;39.604;2022-09-27T14:53:47;8.25;;;4.10;;
52031;SDS011;38044;45.148;39.604;2022-09-27T14:56:18;9.23;;;4.18;;
52031;SDS011;38044;45.148;39.604;2022-09-27T14:58:51;10.32;;;4.43;;
52031;SDS011;38044;45.148;39.604;2022-09-27T15:01:22;22.85;;;5.07;;
52031;SDS011;38044;45.148;39.604;2022-09-27T15:03:48;11.75;;;4.40;;
52031;SDS011;38044;45.148;39.604;2022-09-27T15:06:17;12.45;;;4.68;;
52031;SDS011;38044;45.148;39.604;2022-09-27T15:08:46;12.38;;;3.92;;
52031;SDS011;38044;45.148;39.604;2022-09-27T15:11:16;13.18;;;4.40;;
52031;SDS011;38044;45.148;39.604;2022-09-27T15:13:43;13.55;;;4.55;;
52031;SDS011;38044;45.148;39.604;2022-09-27T15:16:15;11.73;;;4.88;;
52031;SDS011;38044;45.148;39.604;2022-09-27T15:18:45;28.77;;;7.72;;
52031;SDS011;38044;45.148;39.604;2022-09-27T15:21:27;33.83;;;15.10;;
52031;SDS011;38044;45.148;39.604;2022-09-27T15:23:59;45.13;;;20.58;;
52031;SDS011;38044;45.148;39.604;2022-09-27T15:26:34;62.72;;;29.52;;
52031;SDS011;38044;45.148;39.604;2022-09-27T15:29:18;53.83;;;24.83;;
52031;SDS011;38044;45.148;39.604;2022-09-27T15:31:55;65.22;;;32.22;;
52031;SDS011;38044;45.148;39.604;2022-09-27T15:34:27;84.70;;;42.45;;
52031;SDS011;38044;45.148;39.604;2022-09-27T15:36:54;87.50;;;46.40;;
52031;SDS011;38044;45.148;39.604;2022-09-27T15:39:39;91.65;;;46.88;;
52031;SDS011;38044;45.148;39.604;2022-09-27T15:42:06;90.07;;;43.42;;
52031;SDS011;38044;45.148;39.604;2022-09-27T15:44:42;89.20;;;41.40;;
52031;SDS011;38044;45.148;39.604;2022-09-27T15:47:43;84.70;;;44.70;;
52031;SDS011;38044;45.148;39.604;2022-09-27T15:52:51;94.15;;;45.85;;
52031;SDS011;38044;45.148;39.604;2022-09-27T15:55:21;89.93;;;44.55;;
52031;SDS011;38044;45.148;39.604;2022-09-27T16:00:30;94.82;;;45.08;;
52031;SDS011;38044;45.148;39.604;2022-09-27T16:02:56;108.18;;;49.47;;
52031;SDS011;38044;45.148;39.604;2022-09-27T16:05:22;97.68;;;48.65;;
52031;SDS011;38044;45.148;39.604;2022-09-27T16:07:49;98.50;;;46.70;;
52031;SDS011;38044;45.148;39.604;2022-09-27T16:10:23;101.72;;;46.63;;
52031;SDS011;38044;45.148;39.604;2022-09-27T16:12:53;81.68;;;44.67;;
52031;SDS011;38044;45.148;39.604;2022-09-27T16:15:19;87.43;;;44.88;;
52031;SDS011;38044;45.148;39.604;2022-09-27T16:17:45;90.55;;;46.22;;
52031;SDS011;38044;45.148;39.604;2022-09-27T16:20:21;88.00;;;44.08;;
52031;SDS011;38044;45.148;39.604;2022-09-27T16:22:51;84.00;;;43.42;;
52031;SDS011;38044;45.148;39.604;2022-09-27T16:25:20;78.47;;;40.10;;
52031;SDS011;38044;45.148;39.604;2022-09-27T16:27:47;80.38;;;41.90;;
52031;SDS011;38044;45.148;39.604;2022-09-27T16:30:15;100.45;;;56.92;;
52031;SDS011;38044;45.148;39.604;2022-09-27T16:32:42;94.38;;;54.05;;
52031;SDS011;38044;45.148;39.604;2022-09-27T16:35:09;104.38;;;65.90;;
52031;SDS011;38044;45.148;39.604;2022-09-27T16:37:36;118.85;;;71.53;;
52031;SDS011;38044;45.148;39.604;2022-09-27T16:40:04;111.95;;;60.22;;
52031;SDS011;38044;45.148;39.604;2022-09-27T16:42:31;117.32;;;68.95;;
52031;SDS011;38044;45.148;39.604;2022-09-27T16:44:57;111.80;;;66.15;;
52031;SDS011;38044;45.148;39.604;2022-09-27T16:47:23;113.47;;;60.65;;
52031;SDS011;38044;45.148;39.604;2022-09-27T16:49:48;116.75;;;67.57;;
52031;SDS011;38044;45.148;39.604;2022-09-27T16:52:33;123.55;;;68.72;;
52031;SDS011;38044;45.148;39.604;2022-09-27T16:54:59;126.20;;;66.25;;
52031;SDS011;38044;45.148;39.604;2022-09-27T16:57:25;118.07;;;70.03;;
52031;SDS011;38044;45.148;39.604;2022-09-27T16:59:57;134.23;;;71.05;;
52031;SDS011;38044;45.148;39.604;2022-09-27T17:02:23;120.32;;;68.68;;
52031;SDS011;38044;45.148;39.604;2022-09-27T17:04:49;112.22;;;62.85;;
52031;SDS011;38044;45.148;39.604;2022-09-27T17:07:16;111.47;;;64.22;;
52031;SDS011;38044;45.148;39.604;2022-09-27T17:09:42;110.53;;;62.88;;
52031;SDS011;38044;45.148;39.604;2022-09-27T17:12:09;138.50;;;76.38;;
52031;SDS011;38044;45.148;39.604;2022-09-27T17:14:35;127.20;;;74.10;;
52031;SDS011;38044;45.148;39.604;2022-09-27T17:17:00;121.35;;;74.55;;
52031;SDS011;38044;45.148;39.604;2022-09-27T17:19:26;132.45;;;78.78;;
52031;SDS011;38044;45.148;39.604;2022-09-27T17:21:52;146.13;;;77.35;;
52031;SDS011;38044;45.148;39.604;2022-09-27T17:24:21;139.15;;;78.22;;
52031;SDS011;38044;45.148;39.604;2022-09-27T17:26:47;143.40;;;78.05;;
52031;SDS011;38044;45.148;39.604;2022-09-27T17:29:13;139.00;;;77.50;;
52031;SDS011;38044;45.148;39.604;2022-09-27T17:31:40;153.02;;;81.53;;
52031;SDS011;38044;45.148;39.604;2022-09-27T17:34:07;147.57;;;77.13;;
52031;SDS011;38044;45.148;39.604;2022-09-27T17:36:36;140.20;;;78.82;;
52031;SDS011;38044;45.148;39.604;2022-09-27T17:39:06;140.18;;;78.22;;
52031;SDS011;38044;45.148;39.604;2022-09-27T17:41:34;134.98;;;75.90;;
52031;SDS011;38044;45.148;39.604;2022-09-27T17:44:02;136.35;;;81.13;;
52031;SDS011;38044;45.148;39.604;2022-09-27T17:46:34;123.53;;;66.45;;
52031;SDS011;38044;45.148;39.604;2022-09-27T17:49:01;69.40;;;40.13;;
52031;SDS011;38044;45.148;39.604;2022-09-27T17:51:47;98.45;;;54.42;;
52031;SDS011;38044;45.148;39.604;2022-09-27T17:54:15;90.28;;;49.05;;
52031;SDS011;38044;45.148;39.604;2022-09-27T17:56:45;64.85;;;40.08;;
52031;SDS011;38044;45.148;39.604;2022-09-27T17:59:12;91.68;;;49.95;;
52031;SDS011;38044;45.148;39.604;2022-09-27T18:01:42;101.25;;;51.33;;
52031;SDS011;38044;45.148;39.604;2022-09-27T18:04:10;93.43;;;53.30;;